sensor_id;sensor_type;location;lat;lon;timestamp;P1;durP1;ratioP1;P2;durP2;ratioP2
4555;SDS011;2290;48.674;9.018;2024-03-23T00:55:37;5.03;;;3.10;;
4555;SDS011;2290;48.674;9.018;2024-03-23T00:58:03;4.30;;;3.13;;
4555;SDS011;2290;48.674;9.018;2024-03-23T01:00:29;3.10;;;2.40;;
4555;SDS011;2290;48.674;9.018;2024-03-23T01:02:54;5.40;;;3.07;;
4555;SDS011;2290;48.674;9.018;2024-03-23T01:05:20;3.50;;;3.20;;
4555;SDS011;2290;48.674;9.018;2024-03-23T01:07:45;3.57;;;3.00;;
4555;SDS011;2290;48.674;9.018;2024-03-23T01:10:11;4.13;;;2.90;;
4555;SDS011;2290;48.674;9.018;2024-03-23T01:12:37;2.93;;;2.40;;
4555;SDS011;2290;48.674;9.018;2024-03-23T01:15:02;3.00;;;2.70;;
4555;SDS011;2290;48.674;9.018;2024-03-23T01:17:28;5.43;;;3.10;;
4555;SDS011;2290;48.674;9.018;2024-03-23T01:19:53;3.63;;;3.07;;
4555;SDS011;2290;48.674;9.018;2024-03-23T01:22:19;5.43;;;2.70;;
4555;SDS011;2290;48.674;9.018;2024-03-23T01:24:44;4.07;;;2.93;;
4555;SDS011;2290;48.674;9.018;2024-03-23T01:27:10;3.60;;;2.87;;
4555;SDS011;2290;48.674;9.018;2024-03-23T01:29:36;4.40;;;3.00;;
4555;SDS011;2290;48.674;9.018;2024-03-23T01:32:01;5.27;;;3.57;;
4555;SDS011;2290;48.674;9.018;2024-03-23T01:34:27;5.03;;;3.97;;
4555;SDS011;2290;48.674;9.018;2024-03-23T01:36:53;3.93;;;3.30;;
4555;SDS011;2290;48.674;9.018;2024-03-23T01:39:18;6.57;;;3.57;;
4555;SDS011;2290;48.674;9.018;2024-03-23T01:41:44;7.47;;;3.80;;
4555;SDS011;2290;48.674;9.018;2024-03-23T01:44:09;9.90;;;3.97;;
4555;SDS011;2290;48.674;9.018;2024-03-23T01:46:36;5.53;;;3.03;;
4555;SDS011;2290;48.674;9.018;2024-03-23T01:49:04;3.70;;;3.00;;
4555;SDS011;2290;48.674;9.018;2024-03-23T01:51:30;4.20;;;3.23;;
4555;SDS011;2290;48.674;9.018;2024-03-23T01:53:58;3.47;;;2.73;;
4555;SDS011;2290;48.674;9.018;2024-03-23T01:56:27;3.80;;;2.70;;
4555;SDS011;2290;48.674;9.018;2024-03-23T01:58:53;3.30;;;2.50;;
4555;SDS011;2290;48.674;9.018;2024-03-23T02:01:19;2.97;;;2.30;;
4555;SDS011;2290;48.674;9.018;2024-03-23T02:03:44;2.60;;;2.40;;
4555;SDS011;2290;48.674;9.018;2024-03-23T02:06:10;2.80;;;2.50;;
4555;SDS011;2290;48.674;9.018;2024-03-23T02:08:35;3.30;;;2.50;;
4555;SDS011;2290;48.674;9.018;2024-03-23T02:11:01;3.30;;;2.60;;
4555;SDS011;2290;48.674;9.018;2024-03-23T02:13:27;4.40;;;2.70;;
4555;SDS011;2290;48.674;9.018;2024-03-23T02:15:52;3.20;;;2.77;;
4555;SDS011;2290;48.674;9.018;2024-03-23T02:18:18;2.77;;;2.47;;
4555;SDS011;2290;48.674;9.018;2024-03-23T02:20:45;2.63;;;2.37;;
4555;SDS011;2290;48.674;9.018;2024-03-23T02:23:13;2.77;;;2.30;;
4555;SDS011;2290;48.674;9.018;2024-03-23T02:25:45;3.40;;;3.07;;
4555;SDS011;2290;48.674;9.018;2024-03-23T02:28:11;2.77;;;2.30;;
4555;SDS011;2290;48.674;9.018;2024-03-23T02:30:37;3.90;;;3.00;;
4555;SDS011;2290;48.674;9.018;2024-03-23T02:33:03;3.00;;;2.50;;
4555;SDS011;2290;48.674;9.018;2024-03-23T02:35:28;3.10;;;2.67;;
4555;SDS011;2290;48.674;9.018;2024-03-23T02:37:54;2.73;;;2.50;;
4555;SDS011;2290;48.674;9.018;2024-03-23T02:40:21;7.03;;;3.10;;
4555;SDS011;2290;48.674;9.018;2024-03-23T02:42:47;5.03;;;2.90;;
4555;SDS011;2290;48.674;9.018;2024-03-23T02:45:13;4.30;;;3.07;;
4555;SDS011;2290;48.674;9.018;2024-03-23T02:47:38;2.97;;;2.60;;
4555;SDS011;2290;48.674;9.018;2024-03-23T02:50:04;3.20;;;2.50;;
4555;SDS011;2290;48.674;9.018;2024-03-23T02:52:30;9.50;;;3.03;;
4555;SDS011;2290;48.674;9.018;2024-03-23T02:54:56;6.40;;;2.60;;
4555;SDS011;2290;48.674;9.018;2024-03-23T02:57:21;4.40;;;2.67;;
4555;SDS011;2290;48.674;9.018;2024-03-23T02:59:47;4.43;;;2.90;;
4555;SDS011;2290;48.674;9.018;2024-03-23T03:02:13;2.47;;;2.27;;
4555;SDS011;2290;48.674;9.018;2024-03-23T03:04:40;3.33;;;2.50;;
4555;SDS011;2290;48.674;9.018;2024-03-23T03:07:06;4.30;;;2.40;;
4555;SDS011;2290;48.674;9.018;2024-03-23T03:09:31;4.43;;;2.90;;
4555;SDS011;2290;48.674;9.018;2024-03-23T03:11:57;3.63;;;2.27;;
4555;SDS011;2290;48.674;9.018;2024-03-23T03:14:23;3.73;;;2.97;;
4555;SDS011;2290;48.674;9.018;2024-03-23T03:16:49;3.93;;;2.60;;
4555;SDS011;2290;48.674;9.018;2024-03-23T03:19:15;5.73;;;2.90;;
4555;SDS011;2290;48.674;9.018;2024-03-23T03:21:41;4.20;;;2.87;;
4555;SDS011;2290;48.674;9.018;2024-03-23T03:24:07;6.33;;;2.30;;
4555;SDS011;2290;48.674;9.018;2024-03-23T03:26:32;3.57;;;3.10;;
4555;SDS011;2290;48.674;9.018;2024-03-23T03:28:58;3.63;;;2.73;;
4555;SDS011;2290;48.674;9.018;2024-03-23T03:31:24;2.73;;;2.40;;
4555;SDS011;2290;48.674;9.018;2024-03-23T03:33:50;3.47;;;2.80;;
4555;SDS011;2290;48.674;9.018;2024-03-23T03:36:16;4.00;;;2.87;;
4555;SDS011;2290;48.674;9.018;2024-03-23T03:38:43;2.90;;;2.50;;
4555;SDS011;2290;48.674;9.018;2024-03-23T03:41:08;3.60;;;2.80;;
4555;SDS011;2290;48.674;9.018;2024-03-23T03:43:34;3.80;;;2.50;;
4555;SDS011;2290;48.674;9.018;2024-03-23T03:46:00;4.07;;;3.07;;
4555;SDS011;2290;48.674;9.018;2024-03-23T03:48:26;3.37;;;2.67;;
4555;SDS011;2290;48.674;9.018;2024-03-23T03:50:52;3.10;;;2.60;;
4555;SDS011;2290;48.674;9.018;2024-03-23T03:53:18;3.87;;;2.70;;
4555;SDS011;2290;48.674;9.018;2024-03-23T03:55:44;2.50;;;2.30;;
4555;SDS011;2290;48.674;9.018;2024-03-23T03:58:09;3.47;;;2.40;;
4555;SDS011;2290;48.674;9.018;2024-03-23T04:00:35;5.07;;;2.83;;
4555;SDS011;2290;48.674;9.018;2024-03-23T04:03:00;3.03;;;2.10;;
4555;SDS011;2290;48.674;9.018;2024-03-23T04:05:27;3.97;;;2.77;;
4555;SDS011;2290;48.674;9.018;2024-03-23T04:07:52;5.37;;;2.50;;
4555;SDS011;2290;48.674;9.018;2024-03-23T04:10:19;5.30;;;3.00;;
4555;SDS011;2290;48.674;9.018;2024-03-23T04:12:44;3.37;;;2.60;;
4555;SDS011;2290;48.674;9.018;2024-03-23T04:15:10;3.33;;;2.77;;
4555;SDS011;2290;48.674;9.018;2024-03-23T04:17:36;2.60;;;2.40;;
4555;SDS011;2290;48.674;9.018;2024-03-23T04:20:02;3.93;;;3.00;;
4555;SDS011;2290;48.674;9.018;2024-03-23T04:22:30;5.30;;;3.10;;
4555;SDS011;2290;48.674;9.018;2024-03-23T04:24:56;4.90;;;2.27;;
4555;SDS011;2290;48.674;9.018;2024-03-23T04:27:25;2.83;;;2.53;;
4555;SDS011;2290;48.674;9.018;2024-03-23T04:29:53;3.63;;;2.90;;
4555;SDS011;2290;48.674;9.018;2024-03-23T04:32:18;3.13;;;2.77;;
4555;SDS011;2290;48.674;9.018;2024-03-23T04:34:44;3.23;;;2.47;;
4555;SDS011;2290;48.674;9.018;2024-03-23T04:37:10;3.60;;;2.37;;
4555;SDS011;2290;48.674;9.018;2024-03-23T04:39:36;4.17;;;2.70;;
4555;SDS011;2290;48.674;9.018;2024-03-23T04:42:02;3.70;;;2.80;;
4555;SDS011;2290;48.674;9.018;2024-03-23T04:44:28;3.87;;;2.53;;
4555;SDS011;2290;48.674;9.018;2024-03-23T04:46:54;4.70;;;2.30;;
4555;SDS011;2290;48.674;9.018;2024-03-23T04:49:20;3.10;;;2.23;;
4555;SDS011;2290;48.674;9.018;2024-03-23T04:51:45;4.23;;;3.20;;
4555;SDS011;2290;48.674;9.018;2024-03-23T04:54:14;3.37;;;2.70;;
4555;SDS011;2290;48.674;9.018;2024-03-23T04:56:41;5.33;;;2.87;;
4555;SDS011;2290;48.674;9.018;2024-03-23T04:59:07;4.87;;;3.27;;
4555;SDS011;2290;48.674;9.018;2024-03-23T05:01:33;4.23;;;3.27;;
4555;SDS011;2290;48.674;9.018;2024-03-23T05:03:59;5.50;;;3.20;;
4555;SDS011;2290;48.674;9.018;2024-03-23T05:06:25;4.20;;;2.80;;
4555;SDS011;2290;48.674;9.018;2024-03-23T05:08:51;5.87;;;3.70;;
4555;SDS011;2290;48.674;9.018;2024-03-23T05:11:16;3.90;;;3.13;;
4555;SDS011;2290;48.674;9.018;2024-03-23T05:13:42;6.33;;;3.90;;
4555;SDS011;2290;48.674;9.018;2024-03-23T05:16:08;7.70;;;3.80;;
4555;SDS011;2290;48.674;9.018;2024-03-23T05:18:34;5.90;;;3.47;;
4555;SDS011;2290;48.674;9.018;2024-03-23T05:21:00;5.37;;;3.30;;
4555;SDS011;2290;48.674;9.018;2024-03-23T05:23:26;6.53;;;3.60;;
4555;SDS011;2290;48.674;9.018;2024-03-23T05:25:53;5.23;;;3.97;;
4555;SDS011;2290;48.674;9.018;2024-03-23T05:28:19;7.00;;;3.80;;
4555;SDS011;2290;48.674;9.018;2024-03-23T05:30:52;10.30;;;5.00;;
4555;SDS011;2290;48.674;9.018;2024-03-23T05:33:18;9.03;;;4.90;;
4555;SDS011;2290;48.674;9.018;2024-03-23T05:35:45;8.23;;;5.40;;
4555;SDS011;2290;48.674;9.018;2024-03-23T05:38:14;7.83;;;5.27;;
4555;SDS011;2290;48.674;9.018;2024-03-23T05:40:39;8.83;;;5.20;;
4555;SDS011;2290;48.674;9.018;2024-03-23T05:43:07;9.07;;;5.50;;
4555;SDS011;2290;48.674;9.018;2024-03-23T05:45:34;9.67;;;5.33;;
4555;SDS011;2290;48.674;9.018;2024-03-23T05:47:59;7.37;;;4.63;;
4555;SDS011;2290;48.674;9.018;2024-03-23T05:50:26;7.00;;;4.97;;
4555;SDS011;2290;48.674;9.018;2024-03-23T05:52:52;6.30;;;5.00;;
4555;SDS011;2290;48.674;9.018;2024-03-23T05:55:17;7.10;;;5.10;;
4555;SDS011;2290;48.674;9.018;2024-03-23T05:57:43;7.83;;;5.03;;
4555;SDS011;2290;48.674;9.018;2024-03-23T06:00:09;7.83;;;4.60;;
4555;SDS011;2290;48.674;9.018;2024-03-23T06:02:44;8.57;;;4.20;;
4555;SDS011;2290;48.674;9.018;2024-03-23T06:05:12;8.33;;;3.80;;
4555;SDS011;2290;48.674;9.018;2024-03-23T06:07:38;6.77;;;4.27;;
4555;SDS011;2290;48.674;9.018;2024-03-23T06:10:04;5.70;;;3.50;;
4555;SDS011;2290;48.674;9.018;2024-03-23T06:12:31;3.70;;;2.53;;
4555;SDS011;2290;48.674;9.018;2024-03-23T06:14:57;4.40;;;3.00;;
4555;SDS011;2290;48.674;9.018;2024-03-23T06:17:23;3.73;;;2.80;;
4555;SDS011;2290;48.674;9.018;2024-03-23T06:19:48;4.43;;;2.53;;
4555;SDS011;2290;48.674;9.018;2024-03-23T06:22:14;2.50;;;2.17;;
4555;SDS011;2290;48.674;9.018;2024-03-23T06:24:40;2.47;;;2.00;;
4555;SDS011;2290;48.674;9.018;2024-03-23T06:27:07;2.63;;;1.90;;
4555;SDS011;2290;48.674;9.018;2024-03-23T06:29:34;3.17;;;1.83;;
4555;SDS011;2290;48.674;9.018;2024-03-23T06:32:00;6.87;;;2.23;;
4555;SDS011;2290;48.674;9.018;2024-03-23T06:34:26;1.60;;;1.43;;
4555;SDS011;2290;48.674;9.018;2024-03-23T06:36:52;2.37;;;1.37;;
4555;SDS011;2290;48.674;9.018;2024-03-23T06:39:18;1.90;;;1.27;;
4555;SDS011;2290;48.674;9.018;2024-03-23T06:41:53;2.03;;;1.30;;
4555;SDS011;2290;48.674;9.018;2024-03-23T06:44:19;1.77;;;1.20;;
4555;SDS011;2290;48.674;9.018;2024-03-23T06:46:45;1.30;;;1.10;;
4555;SDS011;2290;48.674;9.018;2024-03-23T06:49:11;2.40;;;1.40;;
4555;SDS011;2290;48.674;9.018;2024-03-23T06:51:38;1.60;;;1.23;;
4555;SDS011;2290;48.674;9.018;2024-03-23T06:54:04;1.83;;;1.33;;
4555;SDS011;2290;48.674;9.018;2024-03-23T06:56:30;1.20;;;1.00;;
4555;SDS011;2290;48.674;9.018;2024-03-23T06:58:56;1.10;;;0.80;;
4555;SDS011;2290;48.674;9.018;2024-03-23T07:01:22;1.00;;;0.90;;
4555;SDS011;2290;48.674;9.018;2024-03-23T07:03:48;1.20;;;0.90;;
4555;SDS011;2290;48.674;9.018;2024-03-23T07:06:14;1.30;;;0.90;;
4555;SDS011;2290;48.674;9.018;2024-03-23T07:08:40;1.00;;;0.80;;
4555;SDS011;2290;48.674;9.018;2024-03-23T07:11:06;1.20;;;1.00;;
4555;SDS011;2290;48.674;9.018;2024-03-23T07:13:31;1.10;;;1.00;;
4555;SDS011;2290;48.674;9.018;2024-03-23T07:15:57;1.10;;;1.00;;
4555;SDS011;2290;48.674;9.018;2024-03-23T07:18:24;2.03;;;0.90;;
4555;SDS011;2290;48.674;9.018;2024-03-23T07:20:57;1.20;;;1.00;;
4555;SDS011;2290;48.674;9.018;2024-03-23T07:23:24;1.00;;;0.77;;
4555;SDS011;2290;48.674;9.018;2024-03-23T07:25:59;1.23;;;1.00;;
4555;SDS011;2290;48.674;9.018;2024-03-23T07:28:25;1.10;;;1.00;;
4555;SDS011;2290;48.674;9.018;2024-03-23T07:31:08;0.90;;;0.70;;
4555;SDS011;2290;48.674;9.018;2024-03-23T07:33:41;1.00;;;0.70;;
4555;SDS011;2290;48.674;9.018;2024-03-23T07:36:07;1.10;;;0.90;;
4555;SDS011;2290;48.674;9.018;2024-03-23T07:38:33;0.90;;;0.70;;
4555;SDS011;2290;48.674;9.018;2024-03-23T07:41:05;0.90;;;0.70;;
4555;SDS011;2290;48.674;9.018;2024-03-23T07:43:38;0.90;;;0.83;;
4555;SDS011;2290;48.674;9.018;2024-03-23T07:46:05;0.90;;;0.70;;
4555;SDS011;2290;48.674;9.018;2024-03-23T07:48:32;1.63;;;0.80;;
4555;SDS011;2290;48.674;9.018;2024-03-23T07:51:05;1.20;;;0.80;;
4555;SDS011;2290;48.674;9.018;2024-03-23T07:53:45;0.80;;;0.63;;
4555;SDS011;2290;48.674;9.018;2024-03-23T07:56:11;1.00;;;0.90;;
4555;SDS011;2290;48.674;9.018;2024-03-23T07:58:37;1.00;;;0.80;;
4555;SDS011;2290;48.674;9.018;2024-03-23T08:01:10;1.00;;;0.80;;
4555;SDS011;2290;48.674;9.018;2024-03-23T08:03:40;1.20;;;0.87;;
4555;SDS011;2290;48.674;9.018;2024-03-23T08:06:27;0.90;;;0.70;;
4555;SDS011;2290;48.674;9.018;2024-03-23T08:08:52;1.00;;;0.80;;
4555;SDS011;2290;48.674;9.018;2024-03-23T08:11:33;1.00;;;0.70;;
4555;SDS011;2290;48.674;9.018;2024-03-23T08:13:59;0.90;;;0.77;;
4555;SDS011;2290;48.674;9.018;2024-03-23T08:16:26;0.80;;;0.70;;
4555;SDS011;2290;48.674;9.018;2024-03-23T08:18:52;3.87;;;1.00;;
4555;SDS011;2290;48.674;9.018;2024-03-23T08:21:18;1.00;;;0.80;;
4555;SDS011;2290;48.674;9.018;2024-03-23T08:23:44;1.00;;;0.80;;
4555;SDS011;2290;48.674;9.018;2024-03-23T08:26:10;1.10;;;1.00;;
4555;SDS011;2290;48.674;9.018;2024-03-23T08:28:38;1.30;;;1.10;;
4555;SDS011;2290;48.674;9.018;2024-03-23T08:31:05;1.40;;;1.17;;
4555;SDS011;2290;48.674;9.018;2024-03-23T08:33:34;1.30;;;1.10;;
4555;SDS011;2290;48.674;9.018;2024-03-23T08:36:00;2.10;;;1.10;;
4555;SDS011;2290;48.674;9.018;2024-03-23T08:38:32;1.50;;;1.10;;
4555;SDS011;2290;48.674;9.018;2024-03-23T08:41:05;2.10;;;1.17;;
4555;SDS011;2290;48.674;9.018;2024-03-23T08:43:35;1.43;;;1.30;;
4555;SDS011;2290;48.674;9.018;2024-03-23T08:46:05;1.93;;;1.13;;
4555;SDS011;2290;48.674;9.018;2024-03-23T08:48:39;1.40;;;1.20;;
4555;SDS011;2290;48.674;9.018;2024-03-23T08:51:09;2.30;;;1.33;;
4555;SDS011;2290;48.674;9.018;2024-03-23T08:53:37;3.93;;;1.23;;
4555;SDS011;2290;48.674;9.018;2024-03-23T08:56:03;2.20;;;1.40;;
4555;SDS011;2290;48.674;9.018;2024-03-23T08:58:31;1.70;;;1.53;;
4555;SDS011;2290;48.674;9.018;2024-03-23T09:01:02;2.80;;;1.67;;
4555;SDS011;2290;48.674;9.018;2024-03-23T09:03:36;3.10;;;1.70;;
4555;SDS011;2290;48.674;9.018;2024-03-23T09:06:07;1.93;;;1.73;;
4555;SDS011;2290;48.674;9.018;2024-03-23T09:08:33;6.27;;;2.37;;
4555;SDS011;2290;48.674;9.018;2024-03-23T09:11:03;4.13;;;1.40;;
4555;SDS011;2290;48.674;9.018;2024-03-23T09:13:34;2.77;;;2.00;;
4555;SDS011;2290;48.674;9.018;2024-03-23T09:16:00;6.40;;;2.60;;
4555;SDS011;2290;48.674;9.018;2024-03-23T09:18:25;4.47;;;2.57;;
4555;SDS011;2290;48.674;9.018;2024-03-23T09:20:53;3.67;;;2.00;;
4555;SDS011;2290;48.674;9.018;2024-03-23T09:23:20;3.73;;;2.13;;
4555;SDS011;2290;48.674;9.018;2024-03-23T09:25:47;3.37;;;2.20;;
4555;SDS011;2290;48.674;9.018;2024-03-23T09:28:12;4.27;;;1.90;;
4555;SDS011;2290;48.674;9.018;2024-03-23T09:30:38;3.67;;;2.50;;
4555;SDS011;2290;48.674;9.018;2024-03-23T09:33:08;3.63;;;2.43;;
4555;SDS011;2290;48.674;9.018;2024-03-23T09:35:38;6.37;;;2.50;;
4555;SDS011;2290;48.674;9.018;2024-03-23T09:38:09;3.37;;;2.37;;
4555;SDS011;2290;48.674;9.018;2024-03-23T09:40:40;3.50;;;2.60;;
4555;SDS011;2290;48.674;9.018;2024-03-23T09:43:09;4.20;;;2.67;;
4555;SDS011;2290;48.674;9.018;2024-03-23T09:45:39;5.40;;;2.30;;
4555;SDS011;2290;48.674;9.018;2024-03-23T09:48:08;5.23;;;2.50;;
4555;SDS011;2290;48.674;9.018;2024-03-23T09:50:42;7.20;;;2.60;;
4555;SDS011;2290;48.674;9.018;2024-03-23T09:53:11;5.27;;;2.93;;
4555;SDS011;2290;48.674;9.018;2024-03-23T09:55:38;5.63;;;2.20;;
4555;SDS011;2290;48.674;9.018;2024-03-23T09:58:04;2.40;;;1.87;;
4555;SDS011;2290;48.674;9.018;2024-03-23T10:00:36;8.03;;;2.77;;
4555;SDS011;2290;48.674;9.018;2024-03-23T10:03:02;6.90;;;2.57;;
4555;SDS011;2290;48.674;9.018;2024-03-23T10:05:28;7.90;;;2.53;;
4555;SDS011;2290;48.674;9.018;2024-03-23T10:10:39;4.10;;;2.60;;
4555;SDS011;2290;48.674;9.018;2024-03-23T10:13:05;4.83;;;2.60;;
4555;SDS011;2290;48.674;9.018;2024-03-23T10:15:30;8.00;;;2.40;;
4555;SDS011;2290;48.674;9.018;2024-03-23T10:20:47;3.90;;;2.60;;
4555;SDS011;2290;48.674;9.018;2024-03-23T10:23:31;3.97;;;2.40;;
4555;SDS011;2290;48.674;9.018;2024-03-23T10:26:16;2.53;;;2.10;;
4555;SDS011;2290;48.674;9.018;2024-03-23T10:29:02;7.50;;;2.73;;
4555;SDS011;2290;48.674;9.018;2024-03-23T10:31:32;7.60;;;2.83;;
4555;SDS011;2290;48.674;9.018;2024-03-23T10:33:58;3.20;;;2.40;;
4555;SDS011;2290;48.674;9.018;2024-03-23T10:36:25;5.07;;;2.30;;
4555;SDS011;2290;48.674;9.018;2024-03-23T10:38:51;2.83;;;2.20;;
4555;SDS011;2290;48.674;9.018;2024-03-23T10:41:18;5.13;;;2.73;;
4555;SDS011;2290;48.674;9.018;2024-03-23T10:43:45;6.33;;;2.40;;
4555;SDS011;2290;48.674;9.018;2024-03-23T10:46:11;4.17;;;2.40;;
4555;SDS011;2290;48.674;9.018;2024-03-23T10:48:37;2.70;;;1.70;;
4555;SDS011;2290;48.674;9.018;2024-03-23T10:51:08;3.10;;;2.13;;
4555;SDS011;2290;48.674;9.018;2024-03-23T10:53:34;6.40;;;1.87;;
4555;SDS011;2290;48.674;9.018;2024-03-23T10:56:03;1.70;;;1.30;;
4555;SDS011;2290;48.674;9.018;2024-03-23T11:01:15;2.03;;;1.13;;
4555;SDS011;2290;48.674;9.018;2024-03-23T11:03:44;2.43;;;1.60;;
4555;SDS011;2290;48.674;9.018;2024-03-23T11:06:12;2.77;;;1.80;;
4555;SDS011;2290;48.674;9.018;2024-03-23T11:09:01;5.43;;;2.07;;
4555;SDS011;2290;48.674;9.018;2024-03-23T11:11:27;3.23;;;1.97;;
4555;SDS011;2290;48.674;9.018;2024-03-23T11:13:56;4.20;;;1.57;;
4555;SDS011;2290;48.674;9.018;2024-03-23T11:16:28;2.73;;;1.60;;
4555;SDS011;2290;48.674;9.018;2024-03-23T11:22:01;5.27;;;1.60;;
4555;SDS011;2290;48.674;9.018;2024-03-23T11:24:29;2.50;;;1.50;;
4555;SDS011;2290;48.674;9.018;2024-03-23T11:26:55;5.20;;;1.70;;
4555;SDS011;2290;48.674;9.018;2024-03-23T11:29:21;2.07;;;1.30;;
4555;SDS011;2290;48.674;9.018;2024-03-23T11:31:50;4.23;;;1.40;;
4555;SDS011;2290;48.674;9.018;2024-03-23T11:34:17;5.87;;;1.80;;
4555;SDS011;2290;48.674;9.018;2024-03-23T11:36:43;2.30;;;1.23;;
4555;SDS011;2290;48.674;9.018;2024-03-23T11:39:16;5.60;;;1.50;;
4555;SDS011;2290;48.674;9.018;2024-03-23T11:41:47;2.90;;;1.50;;
4555;SDS011;2290;48.674;9.018;2024-03-23T11:44:21;3.07;;;1.60;;
4555;SDS011;2290;48.674;9.018;2024-03-23T11:46:47;4.00;;;1.70;;
4555;SDS011;2290;48.674;9.018;2024-03-23T11:49:20;2.07;;;1.53;;
4555;SDS011;2290;48.674;9.018;2024-03-23T11:51:50;4.17;;;1.57;;
4555;SDS011;2290;48.674;9.018;2024-03-23T11:54:22;2.63;;;1.40;;
4555;SDS011;2290;48.674;9.018;2024-03-23T11:59:33;2.47;;;1.53;;
4555;SDS011;2290;48.674;9.018;2024-03-23T12:02:09;3.87;;;1.20;;
4555;SDS011;2290;48.674;9.018;2024-03-23T12:04:36;2.67;;;1.47;;
4555;SDS011;2290;48.674;9.018;2024-03-23T12:07:12;2.30;;;1.23;;
4555;SDS011;2290;48.674;9.018;2024-03-23T12:09:44;1.83;;;1.33;;
4555;SDS011;2290;48.674;9.018;2024-03-23T12:12:15;3.27;;;1.93;;
4555;SDS011;2290;48.674;9.018;2024-03-23T12:14:45;4.70;;;2.50;;
4555;SDS011;2290;48.674;9.018;2024-03-23T12:17:27;2.67;;;1.80;;
4555;SDS011;2290;48.674;9.018;2024-03-23T12:19:52;7.20;;;2.00;;
4555;SDS011;2290;48.674;9.018;2024-03-23T12:22:21;2.40;;;1.50;;
4555;SDS011;2290;48.674;9.018;2024-03-23T12:24:47;5.40;;;1.80;;
4555;SDS011;2290;48.674;9.018;2024-03-23T12:27:14;3.10;;;1.70;;
4555;SDS011;2290;48.674;9.018;2024-03-23T12:29:41;3.13;;;1.80;;
4555;SDS011;2290;48.674;9.018;2024-03-23T12:32:08;3.03;;;1.53;;
4555;SDS011;2290;48.674;9.018;2024-03-23T12:34:34;3.13;;;1.90;;
4555;SDS011;2290;48.674;9.018;2024-03-23T12:37:00;5.13;;;2.00;;
4555;SDS011;2290;48.674;9.018;2024-03-23T12:39:25;3.73;;;2.23;;
4555;SDS011;2290;48.674;9.018;2024-03-23T12:41:52;2.83;;;2.23;;
4555;SDS011;2290;48.674;9.018;2024-03-23T12:44:17;3.50;;;2.07;;
4555;SDS011;2290;48.674;9.018;2024-03-23T12:46:45;4.87;;;2.53;;
4555;SDS011;2290;48.674;9.018;2024-03-23T12:49:11;6.47;;;2.60;;
4555;SDS011;2290;48.674;9.018;2024-03-23T12:51:36;13.63;;;2.20;;
4555;SDS011;2290;48.674;9.018;2024-03-23T12:54:02;4.63;;;1.87;;
4555;SDS011;2290;48.674;9.018;2024-03-23T12:56:28;2.40;;;2.10;;
4555;SDS011;2290;48.674;9.018;2024-03-23T12:58:54;2.00;;;1.67;;
4555;SDS011;2290;48.674;9.018;2024-03-23T13:01:22;3.03;;;1.67;;
4555;SDS011;2290;48.674;9.018;2024-03-23T13:03:48;11.47;;;2.07;;
4555;SDS011;2290;48.674;9.018;2024-03-23T13:06:15;5.90;;;2.00;;
4555;SDS011;2290;48.674;9.018;2024-03-23T13:08:41;1.93;;;1.63;;
4555;SDS011;2290;48.674;9.018;2024-03-23T13:11:09;2.17;;;1.30;;
4555;SDS011;2290;48.674;9.018;2024-03-23T13:13:35;3.73;;;1.50;;
4555;SDS011;2290;48.674;9.018;2024-03-23T13:16:01;1.50;;;1.10;;
4555;SDS011;2290;48.674;9.018;2024-03-23T13:18:28;1.83;;;0.90;;
4555;SDS011;2290;48.674;9.018;2024-03-23T13:20:57;1.03;;;0.93;;
4555;SDS011;2290;48.674;9.018;2024-03-23T13:23:23;1.10;;;1.00;;
4555;SDS011;2290;48.674;9.018;2024-03-23T13:25:55;1.30;;;0.87;;
4555;SDS011;2290;48.674;9.018;2024-03-23T13:28:21;7.20;;;1.00;;
4555;SDS011;2290;48.674;9.018;2024-03-23T13:30:51;1.40;;;0.90;;
4555;SDS011;2290;48.674;9.018;2024-03-23T13:33:18;1.40;;;0.90;;
4555;SDS011;2290;48.674;9.018;2024-03-23T13:35:54;1.10;;;0.90;;
4555;SDS011;2290;48.674;9.018;2024-03-23T13:38:22;1.43;;;0.87;;
4555;SDS011;2290;48.674;9.018;2024-03-23T13:40:52;1.93;;;1.10;;
4555;SDS011;2290;48.674;9.018;2024-03-23T13:43:23;1.73;;;1.27;;
4555;SDS011;2290;48.674;9.018;2024-03-23T13:45:53;2.10;;;1.20;;
4555;SDS011;2290;48.674;9.018;2024-03-23T13:48:20;1.77;;;1.10;;
4555;SDS011;2290;48.674;9.018;2024-03-23T13:50:47;4.60;;;1.40;;
4555;SDS011;2290;48.674;9.018;2024-03-23T13:53:13;2.60;;;1.23;;
4555;SDS011;2290;48.674;9.018;2024-03-23T13:55:46;4.87;;;1.50;;
4555;SDS011;2290;48.674;9.018;2024-03-23T13:58:13;2.17;;;1.60;;
4555;SDS011;2290;48.674;9.018;2024-03-23T14:00:39;1.53;;;1.40;;
4555;SDS011;2290;48.674;9.018;2024-03-23T14:03:05;2.73;;;1.60;;
4555;SDS011;2290;48.674;9.018;2024-03-23T14:05:30;3.27;;;1.40;;
4555;SDS011;2290;48.674;9.018;2024-03-23T14:07:56;2.80;;;1.50;;
4555;SDS011;2290;48.674;9.018;2024-03-23T14:10:22;1.70;;;1.23;;
4555;SDS011;2290;48.674;9.018;2024-03-23T14:12:47;2.07;;;1.33;;
4555;SDS011;2290;48.674;9.018;2024-03-23T14:15:14;4.07;;;1.60;;
4555;SDS011;2290;48.674;9.018;2024-03-23T14:17:40;2.90;;;1.47;;
4555;SDS011;2290;48.674;9.018;2024-03-23T14:20:05;3.73;;;1.50;;
4555;SDS011;2290;48.674;9.018;2024-03-23T14:22:34;2.27;;;1.10;;
4555;SDS011;2290;48.674;9.018;2024-03-23T14:24:59;2.80;;;1.33;;
4555;SDS011;2290;48.674;9.018;2024-03-23T14:27:25;1.60;;;1.10;;
4555;SDS011;2290;48.674;9.018;2024-03-23T14:29:52;3.07;;;1.20;;
4555;SDS011;2290;48.674;9.018;2024-03-23T14:32:17;2.17;;;1.30;;
4555;SDS011;2290;48.674;9.018;2024-03-23T14:34:43;1.90;;;1.03;;
4555;SDS011;2290;48.674;9.018;2024-03-23T14:37:08;1.70;;;1.13;;
4555;SDS011;2290;48.674;9.018;2024-03-23T14:39:34;3.00;;;1.23;;
4555;SDS011;2290;48.674;9.018;2024-03-23T14:42:00;3.60;;;1.40;;
4555;SDS011;2290;48.674;9.018;2024-03-23T14:44:27;2.07;;;0.93;;
4555;SDS011;2290;48.674;9.018;2024-03-23T14:46:53;3.43;;;1.33;;
4555;SDS011;2290;48.674;9.018;2024-03-23T14:49:20;3.47;;;1.30;;
4555;SDS011;2290;48.674;9.018;2024-03-23T14:51:45;1.87;;;1.20;;
4555;SDS011;2290;48.674;9.018;2024-03-23T14:54:12;1.50;;;1.10;;
4555;SDS011;2290;48.674;9.018;2024-03-23T14:56:39;2.60;;;1.30;;
4555;SDS011;2290;48.674;9.018;2024-03-23T14:59:05;3.20;;;1.20;;
4555;SDS011;2290;48.674;9.018;2024-03-23T15:01:31;4.43;;;1.50;;
4555;SDS011;2290;48.674;9.018;2024-03-23T15:03:57;3.50;;;1.60;;
4555;SDS011;2290;48.674;9.018;2024-03-23T15:06:22;1.70;;;1.23;;
4555;SDS011;2290;48.674;9.018;2024-03-23T15:08:48;1.20;;;1.00;;
4555;SDS011;2290;48.674;9.018;2024-03-23T15:11:14;3.00;;;1.30;;
4555;SDS011;2290;48.674;9.018;2024-03-23T15:13:42;1.90;;;1.07;;
4555;SDS011;2290;48.674;9.018;2024-03-23T15:16:08;2.03;;;1.00;;
4555;SDS011;2290;48.674;9.018;2024-03-23T15:18:36;1.43;;;1.00;;
4555;SDS011;2290;48.674;9.018;2024-03-23T15:21:02;2.33;;;1.10;;
4555;SDS011;2290;48.674;9.018;2024-03-23T15:23:32;1.17;;;0.97;;
4555;SDS011;2290;48.674;9.018;2024-03-23T15:25:59;2.10;;;1.20;;
4555;SDS011;2290;48.674;9.018;2024-03-23T15:28:25;1.60;;;1.03;;
4555;SDS011;2290;48.674;9.018;2024-03-23T15:31:02;2.23;;;1.10;;
4555;SDS011;2290;48.674;9.018;2024-03-23T15:33:28;1.73;;;1.33;;
4555;SDS011;2290;48.674;9.018;2024-03-23T15:35:54;1.30;;;0.90;;
4555;SDS011;2290;48.674;9.018;2024-03-23T15:38:24;3.17;;;1.27;;
4555;SDS011;2290;48.674;9.018;2024-03-23T15:40:52;2.90;;;1.03;;
4555;SDS011;2290;48.674;9.018;2024-03-23T15:43:18;1.47;;;1.13;;
4555;SDS011;2290;48.674;9.018;2024-03-23T15:45:44;3.83;;;1.80;;
4555;SDS011;2290;48.674;9.018;2024-03-23T15:48:18;1.20;;;0.93;;
4555;SDS011;2290;48.674;9.018;2024-03-23T15:50:50;4.33;;;1.33;;
4555;SDS011;2290;48.674;9.018;2024-03-23T15:53:19;1.50;;;1.10;;
4555;SDS011;2290;48.674;9.018;2024-03-23T15:55:45;1.00;;;0.90;;
4555;SDS011;2290;48.674;9.018;2024-03-23T15:58:17;1.20;;;1.00;;
4555;SDS011;2290;48.674;9.018;2024-03-23T16:00:43;3.37;;;1.50;;
4555;SDS011;2290;48.674;9.018;2024-03-23T16:03:08;1.10;;;1.00;;
4555;SDS011;2290;48.674;9.018;2024-03-23T16:05:34;1.40;;;1.20;;
4555;SDS011;2290;48.674;9.018;2024-03-23T16:07:59;1.40;;;1.00;;
4555;SDS011;2290;48.674;9.018;2024-03-23T16:10:25;1.30;;;0.90;;
4555;SDS011;2290;48.674;9.018;2024-03-23T16:12:52;1.93;;;1.27;;
4555;SDS011;2290;48.674;9.018;2024-03-23T16:15:18;1.60;;;1.20;;
4555;SDS011;2290;48.674;9.018;2024-03-23T16:17:43;1.73;;;1.10;;
4555;SDS011;2290;48.674;9.018;2024-03-23T16:20:09;1.93;;;1.10;;
4555;SDS011;2290;48.674;9.018;2024-03-23T16:22:35;4.10;;;1.20;;
4555;SDS011;2290;48.674;9.018;2024-03-23T16:25:00;3.03;;;1.53;;